Terminal Aerodrome Forecast
Issued by NWS

Home | Current Version | Previous Version | Text Only | Print | Product List | Glossary On
Versions: 1 2 3 4 5 6 7 8 9 10 11 12 13 14 15 16 17
000
FTAK31 PAJN 172109 AAB
TAFAJN
TAF AMD
PAJN 172109Z 1721/1818 08008KT 5SM -SHRA BR BKN035 OVC060
     FM180000 11012KT 6SM -SHRA OVC025
     FM180900 12008KT 6SM -SHRA FEW004 OVC035=

USA.gov is the U.S. government's official web portal to all federal, state and local government web resources and services.